ADDS TAF Data INFO
IDs: Format: Raw Decoded Include METARs

Data at: 1327 UTC 19 Jul 2018

KLAL 191129Z 1912/2012 23007KT P6SM FEW025 BKN200
  FM191600 24008KT P6SM VCTS SCT025CB BKN070
  FM200000 VRB03KT P6SM SCT030 BKN200